createdAt,value
2023-03-04T00:00:32.449Z,151.90
2023-03-04T00:01:32.803Z,149.30
2023-03-04T00:02:33.060Z,150.00
2023-03-04T00:03:33.256Z,148.40
2023-03-04T00:04:33.595Z,147.40
2023-03-04T00:05:33.914Z,150.10
2023-03-04T00:06:34.268Z,147.30
2023-03-04T00:07:34.565Z,153.00
2023-03-04T00:08:34.859Z,145.70
2023-03-04T00:09:35.238Z,154.60
2023-03-04T00:10:35.555Z,150.80
2023-03-04T00:11:35.857Z,151.90
2023-03-04T00:12:36.135Z,147.60
2023-03-04T00:13:36.332Z,148.10
2023-03-04T00:14:36.588Z,147.70
2023-03-04T00:15:36.881Z,143.00
2023-03-04T00:16:37.304Z,144.30
2023-03-04T00:17:37.534Z,146.10
2023-03-04T00:18:37.737Z,142.20
2023-03-04T00:19:38.048Z,153.70
2023-03-04T00:20:38.377Z,159.20
2023-03-04T00:21:38.597Z,166.70
2023-03-04T00:22:38.990Z,164.50
2023-03-04T00:23:39.162Z,164.00
2023-03-04T00:24:39.543Z,170.00
2023-03-04T00:25:41.930Z,166.50
2023-03-04T00:26:40.134Z,165.30
2023-03-04T00:27:40.461Z,156.50
2023-03-04T00:28:40.760Z,155.30
2023-03-04T00:29:41.028Z,163.80
2023-03-04T00:30:41.315Z,162.80
2023-03-04T00:31:41.697Z,168.50
2023-03-04T00:32:42.085Z,159.10
2023-03-04T00:33:42.272Z,162.30
2023-03-04T00:34:42.535Z,161.00
2023-03-04T00:35:42.923Z,159.20
2023-03-04T00:36:43.116Z,149.20
2023-03-04T00:37:43.492Z,155.40
2023-03-04T00:38:43.820Z,157.80
2023-03-04T00:39:44.170Z,153.50
2023-03-04T00:40:44.382Z,150.80
2023-03-04T00:41:44.688Z,157.50
2023-03-04T00:42:44.944Z,148.00
2023-03-04T00:43:45.274Z,145.50
2023-03-04T00:44:45.637Z,155.70
2023-03-04T00:45:45.931Z,157.60
2023-03-04T00:46:46.106Z,157.80
2023-03-04T00:47:46.339Z,165.60
2023-03-04T00:48:46.676Z,160.10
2023-03-04T00:49:47.005Z,160.30
2023-03-04T00:50:47.223Z,157.10
2023-03-04T00:51:47.600Z,159.10
2023-03-04T00:52:47.913Z,152.40
2023-03-04T00:53:48.151Z,150.00
2023-03-04T00:54:48.383Z,151.10
2023-03-04T00:55:48.666Z,154.80
2023-03-04T00:56:49.044Z,156.60
2023-03-04T00:57:49.382Z,153.70
2023-03-04T00:58:49.703Z,144.40
2023-03-04T00:59:49.943Z,149.90
2023-03-04T01:00:50.247Z,147.90
2023-03-04T01:01:50.582Z,144.60
2023-03-04T01:02:50.910Z,143.20
2023-03-04T01:03:51.221Z,145.10
2023-03-04T01:04:51.548Z,148.10
2023-03-04T01:05:51.847Z,146.50
2023-03-04T01:06:52.066Z,144.60
2023-03-04T01:07:52.440Z,142.10
2023-03-04T01:08:52.771Z,140.80
2023-03-04T01:09:53.125Z,141.00
2023-03-04T01:10:53.332Z,139.70
2023-03-04T01:11:53.646Z,136.50
2023-03-04T01:12:53.893Z,140.80
2023-03-04T01:13:54.194Z,133.00
2023-03-04T01:14:54.515Z,137.90
2023-03-04T01:15:54.838Z,135.50
2023-03-04T01:16:55.239Z,131.10
2023-03-04T01:17:55.486Z,133.80
2023-03-04T01:18:55.721Z,129.10
2023-03-04T01:19:56.049Z,131.70
2023-03-04T01:20:56.378Z,125.00
2023-03-04T01:21:56.737Z,128.30
2023-03-04T01:22:56.965Z,121.80
2023-03-04T01:23:57.291Z,128.20
2023-03-04T01:24:57.584Z,125.80
2023-03-04T01:25:57.917Z,121.90
2023-03-04T01:26:58.301Z,127.30
2023-03-04T01:27:58.622Z,124.90
2023-03-04T01:28:58.879Z,124.80
2023-03-04T01:29:59.189Z,120.60
2023-03-04T01:30:59.466Z,121.50
2023-03-04T01:31:59.772Z,120.80
2023-03-04T01:32:59.996Z,123.90
2023-03-04T01:34:00.304Z,118.00
2023-03-04T01:35:00.634Z,114.80
2023-03-04T01:36:00.958Z,113.00
2023-03-04T01:37:01.288Z,114.30
2023-03-04T01:38:01.471Z,111.30
2023-03-04T01:39:01.722Z,108.30
2023-03-04T01:40:02.007Z,112.80
2023-03-04T01:41:02.354Z,114.10
2023-03-04T01:42:02.713Z,115.80
2023-03-04T01:43:02.903Z,111.30
2023-03-04T01:44:03.164Z,109.30
2023-03-04T01:45:03.491Z,115.70
2023-03-04T01:46:03.893Z,113.40
2023-03-04T01:47:04.104Z,110.10
2023-03-04T01:48:04.414Z,112.00
2023-03-04T01:49:04.789Z,115.00
2023-03-04T01:50:05.028Z,115.00
2023-03-04T01:51:05.238Z,110.20
2023-03-04T01:52:05.574Z,105.00
2023-03-04T01:53:05.884Z,105.50
2023-03-04T01:54:06.163Z,108.90
2023-03-04T01:55:06.349Z,98.10
2023-03-04T01:56:06.707Z,105.50
2023-03-04T01:57:07.045Z,99.80
2023-03-04T01:58:07.355Z,103.90
2023-03-04T01:59:07.671Z,100.80
2023-03-04T02:00:07.985Z,98.80
2023-03-04T02:01:08.275Z,99.30
2023-03-04T02:02:08.680Z,99.60
2023-03-04T02:03:08.852Z,99.90
2023-03-04T02:04:09.270Z,92.00
2023-03-04T02:05:09.416Z,96.10
2023-03-04T02:06:09.782Z,95.20
2023-03-04T02:07:10.087Z,98.30
2023-03-04T02:08:10.395Z,97.00
2023-03-04T02:09:10.696Z,92.80
2023-03-04T02:10:10.981Z,91.90
2023-03-04T02:11:11.255Z,90.30
2023-03-04T02:12:11.600Z,91.30
2023-03-04T02:13:11.915Z,89.20
2023-03-04T02:14:12.219Z,89.80
2023-03-04T02:15:12.515Z,85.50
2023-03-04T02:16:12.841Z,95.90
2023-03-04T02:17:13.170Z,89.60
2023-03-04T02:18:13.484Z,91.60
2023-03-04T02:19:13.778Z,91.80
2023-03-04T02:20:14.153Z,86.40
2023-03-04T02:21:14.497Z,84.80
2023-03-04T02:22:14.843Z,84.50
2023-03-04T02:23:15.153Z,89.20
2023-03-04T02:24:15.496Z,84.50
2023-03-04T02:25:15.811Z,82.90
2023-03-04T02:26:16.174Z,86.60
2023-03-04T02:27:16.483Z,81.50
2023-03-04T02:28:16.764Z,78.70
2023-03-04T02:29:17.134Z,74.30
2023-03-04T02:30:17.414Z,75.10
2023-03-04T02:31:17.770Z,77.90
2023-03-04T02:32:18.179Z,75.70
2023-03-04T02:33:18.444Z,74.40
2023-03-04T02:34:18.796Z,76.40
2023-03-04T02:35:19.134Z,81.70
2023-03-04T02:36:19.338Z,78.80
2023-03-04T02:37:19.682Z,77.90
2023-03-04T02:38:19.894Z,78.80
2023-03-04T02:39:20.194Z,80.60
2023-03-04T02:40:20.427Z,78.80
2023-03-04T02:41:20.752Z,79.00
2023-03-04T02:42:21.146Z,75.30
2023-03-04T02:43:21.364Z,71.90
2023-03-04T02:44:21.657Z,78.20
2023-03-04T02:45:21.958Z,79.70
2023-03-04T02:46:22.319Z,75.70
2023-03-04T02:47:22.524Z,75.50
2023-03-04T02:48:22.824Z,71.10
2023-03-04T02:49:23.149Z,74.00
2023-03-04T02:50:23.456Z,71.50
2023-03-04T02:51:23.763Z,69.90
2023-03-04T02:52:24.052Z,69.50
2023-03-04T02:53:24.447Z,67.30
2023-03-04T02:54:24.624Z,70.90
2023-03-04T02:55:24.938Z,69.90
2023-03-04T02:56:25.219Z,73.00
2023-03-04T02:57:25.567Z,69.00
2023-03-04T02:58:25.906Z,72.90
2023-03-04T02:59:26.184Z,67.60
2023-03-04T03:00:26.516Z,70.50
2023-03-04T03:01:26.887Z,67.70
2023-03-04T03:02:27.210Z,69.90
2023-03-04T03:03:27.494Z,70.30
2023-03-04T03:04:27.797Z,66.40
2023-03-04T03:05:28.085Z,69.40
2023-03-04T03:06:28.418Z,66.30
2023-03-04T03:07:28.765Z,68.10
2023-03-04T03:08:29.108Z,64.70
2023-03-04T03:09:29.444Z,73.40
2023-03-04T03:10:29.738Z,73.80
2023-03-04T03:11:30.067Z,67.70
2023-03-04T03:12:30.339Z,66.20
2023-03-04T03:13:30.730Z,65.70
2023-03-04T03:14:31.029Z,63.10
2023-03-04T03:15:31.348Z,63.40
2023-03-04T03:16:31.657Z,64.60
2023-03-04T03:17:31.989Z,61.80
2023-03-04T03:18:32.296Z,66.90
2023-03-04T03:19:32.607Z,64.90
2023-03-04T03:20:32.912Z,64.70
2023-03-04T03:21:33.230Z,60.10
2023-03-04T03:22:33.545Z,62.90
2023-03-04T03:23:33.908Z,65.30
2023-03-04T03:24:34.078Z,60.80
2023-03-04T03:25:34.463Z,60.80
2023-03-04T03:26:34.648Z,65.20
2023-03-04T03:27:34.936Z,62.10
2023-03-04T03:28:35.245Z,59.70
2023-03-04T03:29:35.572Z,58.50
2023-03-04T03:30:35.892Z,58.10
2023-03-04T03:31:36.264Z,62.80
2023-03-04T03:32:36.615Z,58.00
2023-03-04T03:33:36.790Z,64.00
2023-03-04T03:34:37.102Z,59.00
2023-03-04T03:35:37.424Z,54.70
2023-03-04T03:36:37.768Z,57.80
2023-03-04T03:37:37.963Z,58.10
2023-03-04T03:38:38.303Z,54.00
2023-03-04T03:39:38.612Z,55.70
2023-03-04T03:40:38.924Z,54.60
2023-03-04T03:41:39.238Z,58.10
2023-03-04T03:42:39.543Z,58.90
2023-03-04T03:43:39.851Z,57.40
2023-03-04T03:44:40.134Z,59.20
2023-03-04T03:45:40.512Z,54.80
2023-03-04T03:46:40.831Z,55.50
2023-03-04T03:47:41.103Z,55.40
2023-03-04T03:48:41.461Z,52.10
2023-03-04T03:49:41.791Z,57.30
2023-03-04T03:50:42.092Z,57.90
2023-03-04T03:51:42.394Z,51.50
2023-03-04T03:52:42.706Z,53.90
2023-03-04T03:53:43.076Z,56.40
2023-03-04T03:54:43.382Z,56.60
2023-03-04T03:55:43.674Z,49.60
2023-03-04T03:56:43.974Z,55.20
2023-03-04T03:57:44.337Z,54.50
2023-03-04T03:58:44.637Z,49.00
2023-03-04T03:59:44.946Z,47.70
2023-03-04T04:00:45.217Z,53.20
2023-03-04T04:01:45.588Z,52.40
2023-03-04T04:02:46.011Z,53.80
2023-03-04T04:03:46.229Z,49.90
2023-03-04T04:04:46.523Z,46.30
2023-03-04T04:05:46.800Z,50.50
2023-03-04T04:06:47.134Z,50.60
2023-03-04T04:07:47.489Z,50.40
2023-03-04T04:08:47.778Z,44.70
2023-03-04T04:09:48.130Z,46.20
2023-03-04T04:10:48.409Z,46.60
2023-03-04T04:11:48.727Z,46.40
2023-03-04T04:12:49.101Z,56.50
2023-03-04T04:13:49.403Z,49.30
2023-03-04T04:14:49.713Z,53.40
2023-03-04T04:15:50.019Z,48.70
2023-03-04T04:16:50.410Z,43.50
2023-03-04T04:17:50.588Z,45.60
2023-03-04T04:18:50.921Z,47.80
2023-03-04T04:19:51.280Z,49.10
2023-03-04T04:20:51.593Z,48.20
2023-03-04T04:21:51.898Z,45.00
2023-03-04T04:22:52.204Z,39.40
2023-03-04T04:23:52.468Z,44.80
2023-03-04T04:24:52.882Z,45.80
2023-03-04T04:25:53.098Z,45.00
2023-03-04T04:26:53.371Z,44.90
2023-03-04T04:27:53.724Z,50.60
2023-03-04T04:28:54.004Z,45.80
2023-03-04T04:29:54.355Z,46.80
2023-03-04T04:30:54.673Z,42.10
2023-03-04T04:31:55.029Z,47.20
2023-03-04T04:32:55.205Z,47.20
2023-03-04T04:33:55.489Z,49.20
2023-03-04T04:34:55.859Z,41.70
2023-03-04T04:35:56.239Z,49.30
2023-03-04T04:36:56.402Z,43.90
2023-03-04T04:37:56.763Z,50.10
2023-03-04T04:38:57.054Z,49.20
2023-03-04T04:39:57.422Z,43.10
2023-03-04T04:40:57.697Z,50.20
2023-03-04T04:41:58.039Z,43.10
2023-03-04T04:42:58.372Z,45.30
2023-03-04T04:43:58.694Z,47.50
2023-03-04T04:44:59.042Z,44.00
2023-03-04T04:45:59.408Z,42.90
2023-03-04T04:46:59.695Z,45.10
2023-03-04T04:48:00.045Z,44.00
2023-03-04T04:49:00.357Z,44.10
2023-03-04T04:50:00.980Z,51.10
2023-03-04T04:51:00.944Z,46.80
2023-03-04T04:52:01.310Z,52.80
2023-03-04T04:53:01.588Z,46.30
2023-03-04T04:54:01.927Z,49.80
2023-03-04T04:55:02.289Z,47.60
2023-03-04T04:56:02.441Z,45.40
2023-03-04T04:57:02.785Z,43.40
2023-03-04T04:58:03.109Z,45.30
2023-03-04T04:59:03.416Z,46.20
2023-03-04T05:00:03.662Z,49.10
2023-03-04T05:01:03.990Z,48.00
2023-03-04T05:02:04.214Z,41.20
2023-03-04T05:03:04.578Z,48.80
2023-03-04T05:04:04.764Z,49.20
2023-03-04T05:05:05.117Z,45.20
2023-03-04T05:06:05.336Z,44.30
2023-03-04T05:07:05.655Z,47.50
2023-03-04T05:08:06.021Z,42.30
2023-03-04T05:09:06.218Z,44.60
2023-03-04T05:10:06.543Z,49.70
2023-03-04T05:11:06.852Z,44.40
2023-03-04T05:12:07.098Z,46.50
2023-03-04T05:13:07.405Z,47.30
2023-03-04T05:14:07.728Z,46.80
2023-03-04T05:15:08.073Z,49.30
2023-03-04T05:16:08.343Z,47.80
2023-03-04T05:17:08.555Z,45.00
2023-03-04T05:18:08.844Z,43.00
2023-03-04T05:19:09.455Z,48.00
2023-03-04T05:20:09.544Z,46.70
2023-03-04T05:21:09.755Z,43.50
2023-03-04T05:22:10.049Z,47.20
2023-03-04T05:23:10.389Z,46.80
2023-03-04T05:24:10.740Z,45.90
2023-03-04T05:25:11.198Z,43.50
2023-03-04T05:26:11.409Z,41.60
2023-03-04T05:27:11.741Z,44.80
2023-03-04T05:28:12.041Z,44.50
2023-03-04T05:29:12.273Z,52.00
2023-03-04T05:30:12.639Z,44.90
2023-03-04T05:31:13.032Z,47.40
2023-03-04T05:32:13.331Z,46.90
2023-03-04T05:33:13.626Z,41.80
2023-03-04T05:34:13.962Z,42.40
2023-03-04T05:35:14.306Z,47.30
2023-03-04T05:36:14.525Z,45.60
2023-03-04T05:37:14.838Z,48.50
2023-03-04T05:38:15.197Z,49.10
2023-03-04T05:39:15.406Z,45.20
2023-03-04T05:40:15.756Z,46.90
2023-03-04T05:41:15.977Z,46.90
2023-03-04T05:42:16.186Z,43.50
2023-03-04T05:43:16.472Z,42.80
2023-03-04T05:44:16.801Z,44.40
2023-03-04T05:45:17.157Z,45.70
2023-03-04T05:46:17.525Z,45.00
2023-03-04T05:47:17.715Z,53.40
2023-03-04T05:48:18.068Z,43.80
2023-03-04T05:49:18.388Z,49.50
2023-03-04T05:50:18.715Z,47.70
2023-03-04T05:51:19.022Z,48.80
2023-03-04T05:52:19.351Z,46.10
2023-03-04T05:53:19.708Z,48.40
2023-03-04T05:54:20.052Z,47.00
2023-03-04T05:55:20.440Z,44.10
2023-03-04T05:56:20.756Z,50.30
2023-03-04T05:57:21.077Z,50.50
2023-03-04T05:58:21.441Z,54.30
2023-03-04T05:59:21.606Z,49.80
2023-03-04T06:00:21.985Z,53.60
2023-03-04T06:01:22.197Z,59.00
2023-03-04T06:02:22.616Z,58.80
2023-03-04T06:03:22.916Z,59.90
2023-03-04T06:04:23.066Z,59.60
2023-03-04T06:05:23.267Z,57.60
2023-03-04T06:06:23.599Z,60.20
2023-03-04T06:07:23.916Z,53.90
2023-03-04T06:08:24.240Z,58.30
2023-03-04T06:09:24.594Z,52.50
2023-03-04T06:10:24.959Z,55.30
2023-03-04T06:11:25.131Z,45.00
2023-03-04T06:12:25.474Z,42.40
2023-03-04T06:13:25.811Z,53.20
2023-03-04T06:14:26.199Z,50.10
2023-03-04T06:15:26.367Z,43.10
2023-03-04T06:16:26.739Z,40.10
2023-03-04T06:17:26.968Z,42.30
2023-03-04T06:18:27.352Z,41.30
2023-03-04T06:19:27.518Z,40.10
2023-03-04T06:20:27.821Z,40.60
2023-03-04T06:21:28.086Z,40.90
2023-03-04T06:22:28.391Z,44.50
2023-03-04T06:23:28.725Z,38.90
2023-03-04T06:24:28.992Z,35.60
2023-03-04T06:25:29.360Z,44.90
2023-03-04T06:26:29.666Z,38.00
2023-03-04T06:27:29.978Z,38.90
2023-03-04T06:28:30.346Z,38.20
2023-03-04T06:29:30.633Z,39.30
2023-03-04T06:30:30.994Z,39.00
2023-03-04T06:31:31.311Z,34.90
2023-03-04T06:32:31.659Z,42.50
2023-03-04T06:33:31.882Z,37.90
2023-03-04T06:34:43.761Z,39.80
2023-03-04T06:35:32.556Z,38.90
2023-03-04T06:36:32.892Z,36.90
2023-03-04T06:37:33.101Z,45.10
2023-03-04T06:38:33.441Z,38.50
2023-03-04T06:39:33.816Z,38.80
2023-03-04T06:40:34.013Z,40.40
2023-03-04T06:41:34.277Z,39.00
2023-03-04T06:42:34.607Z,40.10
2023-03-04T06:43:34.941Z,39.10
2023-03-04T06:44:35.294Z,36.20
2023-03-04T06:45:35.510Z,36.60
2023-03-04T06:46:35.935Z,36.40
2023-03-04T06:47:36.103Z,38.00
2023-03-04T06:48:36.330Z,39.00
2023-03-04T06:49:36.654Z,37.80
2023-03-04T06:50:37.018Z,35.40
2023-03-04T06:51:37.173Z,32.40
2023-03-04T06:52:37.415Z,35.10
2023-03-04T06:53:37.714Z,38.00
2023-03-04T06:54:38.058Z,40.00
2023-03-04T06:55:38.160Z,34.90
2023-03-04T06:56:38.410Z,41.30
2023-03-04T06:57:38.729Z,32.60
2023-03-04T06:58:39.058Z,35.70
2023-03-04T06:59:39.315Z,30.50
2023-03-04T07:00:39.629Z,38.70
2023-03-04T07:01:39.889Z,33.50
2023-03-04T07:02:40.127Z,33.50
2023-03-04T07:03:40.382Z,29.70
2023-03-04T07:04:40.654Z,30.50
2023-03-04T07:05:40.989Z,34.40
2023-03-04T07:06:41.227Z,34.50
2023-03-04T07:07:41.464Z,31.10
2023-03-04T07:08:41.834Z,23.30
2023-03-04T07:09:41.974Z,39.70
2023-03-04T07:10:42.191Z,32.00
2023-03-04T07:11:42.658Z,30.80
2023-03-04T07:12:42.875Z,30.50
2023-03-04T07:13:43.153Z,27.50
2023-03-04T07:14:43.423Z,29.60
2023-03-04T07:15:43.655Z,30.90
2023-03-04T07:16:44.123Z,23.90
2023-03-04T07:17:44.256Z,26.40
2023-03-04T07:18:44.404Z,25.50
2023-03-04T07:19:44.619Z,27.80
2023-03-04T07:20:44.950Z,25.30
2023-03-04T07:21:45.263Z,23.90
2023-03-04T07:22:45.491Z,26.10
2023-03-04T07:23:45.768Z,26.40
2023-03-04T07:24:46.145Z,22.70
2023-03-04T07:25:46.342Z,19.90
2023-03-04T07:26:46.626Z,24.50
2023-03-04T07:27:46.910Z,27.50
2023-03-04T07:28:47.202Z,23.40
2023-03-04T07:29:47.487Z,26.10
2023-03-04T07:30:47.777Z,23.60
2023-03-04T07:31:48.028Z,26.10
2023-03-04T07:32:48.392Z,21.90
2023-03-04T07:33:48.582Z,17.80
2023-03-04T07:34:48.921Z,17.80
2023-03-04T07:35:49.302Z,22.90
2023-03-04T07:36:49.517Z,19.90
2023-03-04T07:37:49.787Z,18.00
2023-03-04T07:38:50.044Z,21.00
2023-03-04T07:39:50.307Z,17.60
2023-03-04T07:40:50.586Z,20.20
2023-03-04T07:41:50.831Z,16.50
2023-03-04T07:42:51.072Z,18.90
2023-03-04T07:43:51.351Z,18.00
2023-03-04T07:44:51.665Z,18.40
2023-03-04T07:45:52.097Z,20.20
2023-03-04T07:46:52.200Z,19.00
2023-03-04T07:47:52.467Z,20.90
2023-03-04T07:48:52.719Z,22.00
2023-03-04T07:49:53.104Z,24.20
2023-03-04T07:50:53.533Z,20.00
2023-03-04T07:51:53.601Z,22.80
2023-03-04T07:52:53.817Z,24.30
2023-03-04T07:53:54.162Z,21.00
2023-03-04T07:54:54.560Z,21.60
2023-03-04T07:55:54.794Z,21.50
2023-03-04T07:56:55.022Z,21.50
2023-03-04T07:57:55.257Z,18.30
2023-03-04T07:58:55.677Z,22.50
2023-03-04T07:59:56.020Z,23.50
2023-03-04T08:00:56.295Z,18.60
2023-03-04T08:01:56.571Z,22.60
2023-03-04T08:02:56.839Z,18.60
2023-03-04T08:03:57.069Z,20.20
2023-03-04T08:04:57.379Z,23.30
2023-03-04T08:05:57.615Z,22.10
2023-03-04T08:06:57.961Z,21.80
2023-03-04T08:07:58.137Z,23.90
2023-03-04T08:08:58.403Z,24.10
2023-03-04T08:09:58.687Z,18.60
2023-03-04T08:10:58.992Z,20.60
2023-03-04T08:11:59.309Z,20.10
2023-03-04T08:12:59.598Z,20.30
2023-03-04T08:13:59.883Z,23.10
2023-03-04T08:15:00.148Z,18.80
2023-03-04T08:16:00.476Z,20.80
2023-03-04T08:17:00.727Z,24.70
2023-03-04T08:18:01.000Z,23.80
2023-03-04T08:19:01.300Z,21.70
2023-03-04T08:20:01.562Z,18.40
2023-03-04T08:21:01.922Z,15.30
2023-03-04T08:22:02.251Z,18.10
2023-03-04T08:23:02.576Z,18.50
2023-03-04T08:24:02.814Z,14.60
2023-03-04T08:25:03.105Z,17.90
2023-03-04T08:26:03.375Z,15.50
2023-03-04T08:27:03.721Z,18.20
2023-03-04T08:28:04.009Z,18.90
2023-03-04T08:29:04.201Z,21.00
2023-03-04T08:30:04.682Z,19.50
2023-03-04T08:31:05.007Z,20.70
2023-03-04T08:32:05.408Z,16.30
2023-03-04T08:33:05.585Z,20.80
2023-03-04T08:34:05.779Z,19.70
2023-03-04T08:35:06.171Z,20.90
2023-03-04T08:36:06.384Z,20.70
2023-03-04T08:37:06.746Z,19.30
2023-03-04T08:38:07.018Z,25.30
2023-03-04T08:39:07.356Z,20.80
2023-03-04T08:40:07.562Z,24.10
2023-03-04T08:41:07.822Z,19.40
2023-03-04T08:42:08.111Z,18.00
2023-03-04T08:43:08.391Z,22.80
2023-03-04T08:44:08.832Z,19.80
2023-03-04T08:45:08.907Z,15.00
2023-03-04T08:46:09.222Z,15.90
2023-03-04T08:47:09.552Z,19.40
2023-03-04T08:48:10.083Z,13.70
2023-03-04T08:49:10.099Z,16.60
2023-03-04T08:50:10.396Z,12.40
2023-03-04T08:51:10.725Z,16.40
2023-03-04T08:52:11.018Z,14.10
2023-03-04T08:53:11.327Z,15.00
2023-03-04T08:54:11.613Z,17.90
2023-03-04T08:55:11.890Z,17.20
2023-03-04T08:56:12.222Z,16.70
2023-03-04T08:57:12.438Z,16.60
2023-03-04T08:58:12.733Z,24.00
2023-03-04T08:59:13.000Z,16.90
2023-03-04T09:00:13.337Z,21.90
2023-03-04T09:01:13.703Z,17.00
2023-03-04T09:02:13.897Z,19.80
2023-03-04T09:03:14.205Z,23.10
2023-03-04T09:04:14.488Z,19.50
2023-03-04T09:05:14.706Z,17.00
2023-03-04T09:06:15.017Z,16.30
2023-03-04T09:07:15.256Z,18.00
2023-03-04T09:08:15.533Z,16.10
2023-03-04T09:09:15.780Z,20.00
2023-03-04T09:10:16.100Z,16.30
2023-03-04T09:11:16.531Z,16.20
2023-03-04T09:12:16.709Z,16.10
2023-03-04T09:13:17.135Z,13.70
2023-03-04T09:14:17.311Z,14.50
2023-03-04T09:15:17.720Z,17.30
2023-03-04T09:16:17.874Z,16.80
2023-03-04T09:17:18.304Z,14.20
2023-03-04T09:18:18.388Z,12.80
2023-03-04T09:19:18.708Z,18.80
2023-03-04T09:20:19.015Z,12.60
2023-03-04T09:21:19.300Z,17.10
2023-03-04T09:22:19.554Z,15.60
2023-03-04T09:23:19.892Z,17.40
2023-03-04T09:24:20.130Z,13.60
2023-03-04T09:25:20.451Z,14.00
2023-03-04T09:26:20.728Z,15.30
2023-03-04T09:27:21.009Z,18.60
2023-03-04T09:28:21.238Z,17.20
2023-03-04T09:29:21.708Z,15.80
2023-03-04T09:30:21.909Z,14.80
2023-03-04T09:31:22.244Z,15.20
2023-03-04T09:32:22.585Z,12.30
2023-03-04T09:33:22.804Z,14.70
2023-03-04T09:34:23.141Z,16.00
2023-03-04T09:35:23.425Z,15.10
2023-03-04T09:36:23.710Z,16.10
2023-03-04T09:37:24.018Z,18.30
2023-03-04T09:38:24.265Z,15.00
2023-03-04T09:39:24.678Z,13.10
2023-03-04T09:40:24.898Z,15.60
2023-03-04T09:41:25.023Z,12.70
2023-03-04T09:42:25.414Z,12.70
2023-03-04T09:43:25.600Z,16.00
2023-03-04T09:44:25.918Z,12.40
2023-03-04T09:45:26.212Z,13.90
2023-03-04T09:46:26.604Z,11.70
2023-03-04T09:47:26.813Z,14.60
2023-03-04T09:48:27.047Z,12.50
2023-03-04T09:49:27.214Z,12.50
2023-03-04T09:50:27.512Z,11.40
2023-03-04T09:51:27.867Z,11.90
2023-03-04T09:52:28.082Z,11.40
2023-03-04T09:53:28.478Z,14.90
2023-03-04T09:54:28.731Z,9.90
2023-03-04T09:55:29.249Z,11.50
2023-03-04T09:56:29.702Z,12.50
2023-03-04T09:57:29.501Z,12.20
2023-03-04T09:58:29.722Z,11.30
2023-03-04T09:59:30.066Z,10.80
2023-03-04T10:00:30.243Z,11.40
2023-03-04T10:01:30.481Z,9.40
2023-03-04T10:02:30.736Z,10.00
2023-03-04T10:03:31.024Z,11.90
2023-03-04T10:04:31.268Z,8.50
2023-03-04T10:05:31.512Z,10.90
2023-03-04T10:06:31.760Z,11.00
2023-03-04T10:07:32.088Z,11.90
2023-03-04T10:08:32.392Z,11.30
2023-03-04T10:09:32.628Z,9.00
2023-03-04T10:10:33.018Z,13.10
2023-03-04T10:11:33.087Z,10.70
2023-03-04T10:12:33.436Z,8.40
2023-03-04T10:13:33.710Z,11.70
2023-03-04T10:14:34.439Z,11.50
2023-03-04T10:15:34.346Z,12.00
2023-03-04T10:16:34.606Z,12.50
2023-03-04T10:17:34.989Z,11.30
2023-03-04T10:18:35.117Z,9.00
2023-03-04T10:19:35.479Z,10.30
